Sergiyev Posad, Russia
Current Conditions -  °F | °C
As of 11:00 PM on Friday 24 Oct 2014 (Local Time) from UUEE Reporting Station
Clear Clear  
Wind Chill: 11°   Ceiling: Unl
Heat Index: 18°   Visibility: 6mi
Dew Point: 12°   Wind: 4mph
Humidity: 79%   Direction: NA
Pressure: 30.62"   Gusts: NA
Location:  56.32°N, 38.13°E
Report Text: UUEE 242000Z VRB02MPS CAVOK M08/M11 Q1037 07000062 57150151NOSIG
Loading
Personal Weather Stations






























Interactive Weather Map
Tropical Storm Tracking
New forecast layout! Learn more

10-Day Weather Forecast

Advertisements
Track Severe Weather on mobile